Time;durP1;ratioP1;P1;durP2;ratioP2;P2;SDS_P1;SDS_P2;PMS_P1;PMS_P2;Temp;Humidity;BMP_temperature;BMP_pressure;BME280_temperature;BME280_humidity;BME280_pressure;Samples;Min_cycle;Max_cycle;Signal;HPM_P1;HPM_P2
2022/08/21 00:07:06;;;;;;;12.10;8.37;;;;;;;20.14;78.78;99822.63;30872742;28;96738;-59
2022/08/21 00:22:06;;;;;;;12.17;9.53;;;;;;;19.96;78.81;99805.56;30870726;28;97446;-60
2022/08/21 00:37:07;;;;;;;14.40;9.23;;;;;;;19.77;79.09;99799.47;30869475;28;96717;-60
2022/08/21 00:52:13;;;;;;;11.50;8.50;;;;;;;19.68;79.35;99806.31;30868168;28;97123;-59
2022/08/21 01:07:13;;;;;;;10.47;7.63;;;;;;;19.62;79.66;99806.22;30866662;28;96693;-59
2022/08/21 01:22:14;;;;;;;8.43;5.55;;;;;;;19.56;79.52;99763.97;30864800;28;97421;-60
2022/08/21 01:37:15;;;;;;;6.15;4.65;;;;;;;19.40;80.00;99737.69;30862929;28;96726;-59
2022/08/21 01:52:16;;;;;;;7.33;4.37;;;;;;;19.24;79.92;99733.88;30861194;28;97931;-60
2022/08/21 02:07:16;;;;;;;5.68;4.45;;;;;;;19.04;79.90;99745.03;30859287;28;97387;-59
2022/08/21 02:22:17;;;;;;;5.15;3.50;;;;;;;18.90;80.18;99726.44;30859456;28;97110;-60
2022/08/21 02:37:17;;;;;;;4.50;2.90;;;;;;;18.77;80.21;99703.16;30857150;28;96735;-60
2022/08/21 02:52:18;;;;;;;2.65;1.73;;;;;;;18.64;80.41;99705.28;30856511;28;96681;-59
2022/08/21 03:07:18;;;;;;;3.33;1.65;;;;;;;18.54;80.53;99717.47;30853853;28;100727;-59
2022/08/21 03:22:18;;;;;;;2.97;1.60;;;;;;;18.60;80.68;99710.31;30853988;28;99899;-59
2022/08/21 03:37:19;;;;;;;2.38;1.83;;;;;;;18.52;81.06;99730.41;30852361;28;97116;-60
2022/08/21 03:52:19;;;;;;;4.32;1.67;;;;;;;18.43;80.72;99745.28;30851925;28;96634;-59
2022/08/21 04:07:19;;;;;;;3.55;2.58;;;;;;;18.36;80.87;99737.28;30854721;28;97457;-60
2022/08/21 04:22:20;;;;;;;4.93;2.88;;;;;;;18.36;81.14;99741.88;30870570;28;109349;-60
2022/08/21 04:37:20;;;;;;;4.50;2.45;;;;;;;18.38;81.17;99756.75;30868418;28;97607;-59
2022/08/21 04:52:23;;;;;;;3.80;2.67;;;;;;;18.40;80.98;99751.94;30866709;28;96753;-59
2022/08/21 05:07:28;;;;;;;3.73;2.37;;;;;;;18.45;80.95;99767.41;30866859;28;96766;-60
2022/08/21 05:22:28;;;;;;;2.63;1.97;;;;;;;18.54;81.04;99773.31;30862150;28;96663;-60
2022/08/21 05:37:29;;;;;;;2.55;1.70;;;;;;;18.46;80.91;99793.34;30861685;28;96737;-60
2022/08/21 05:52:30;;;;;;;2.75;2.00;;;;;;;18.36;80.76;99803.88;30860011;28;96712;-60
2022/08/21 06:07:30;;;;;;;3.88;2.08;;;;;;;18.25;80.66;99808.19;30860038;28;96853;-60
2022/08/21 06:22:30;;;;;;;3.15;2.20;;;;;;;18.17;80.97;99828.22;30858000;28;97431;-61
2022/08/21 06:37:31;;;;;;;2.90;2.03;;;;;;;18.09;80.98;99869.78;30856356;28;97376;-60
2022/08/21 06:52:31;;;;;;;4.47;2.10;;;;;;;18.00;81.10;99890.03;30854532;28;97538;-60
2022/08/21 07:07:32;;;;;;;3.70;2.33;;;;;;;17.63;80.48;99916.09;30854103;28;96658;-60
2022/08/21 07:22:33;;;;;;;6.32;2.85;;;;;;;17.23;80.62;99915.44;30853363;28;101419;-59
2022/08/21 07:37:33;;;;;;;4.73;3.17;;;;;;;16.89;80.69;99906.84;30851797;28;97370;-59
2022/08/21 07:52:34;;;;;;;6.43;3.45;;;;;;;16.84;80.90;99920.09;30868575;28;97472;-59
2022/08/21 08:07:35;;;;;;;4.40;2.72;;;;;;;16.98;80.68;99917.34;30872467;28;96711;-61
2022/08/21 08:22:37;;;;;;;4.78;2.60;;;;;;;17.01;80.30;99933.03;30869445;28;96851;-60
2022/08/21 08:37:39;;;;;;;3.77;2.17;;;;;;;17.14;79.92;99937.47;30867165;28;97295;-61
2022/08/21 08:52:48;;;;;;;4.63;2.37;;;;;;;17.50;79.36;99941.31;30864983;28;96592;-60
2022/08/21 09:07:51;;;;;;;3.50;2.00;;;;;;;18.28;77.84;99926.38;30865315;28;96734;-60
2022/08/21 09:23:04;;;;;;;4.50;2.03;;;;;;;18.37;77.01;99951.13;30863335;28;97238;-60
2022/08/21 09:38:07;;;;;;;4.13;2.07;;;;;;;17.92;76.46;99961.22;30861438;28;96682;-60
2022/08/21 09:53:18;;;;;;;2.50;1.43;;;;;;;17.73;76.15;99959.53;30860969;28;97312;-60
2022/08/21 10:08:20;;;;;;;3.50;1.73;;;;;;;18.22;75.50;99965.84;30857353;28;96643;-60
2022/08/21 10:23:29;;;;;;;5.03;2.03;;;;;;;17.81;74.01;99967.31;30857576;28;96763;-60
2022/08/21 10:38:38;;;;;;;3.33;1.50;;;;;;;17.72;74.37;99966.78;30855449;28;97381;-60
2022/08/21 10:53:50;;;;;;;3.50;1.80;;;;;;;17.84;73.34;99952.59;30854844;28;96678;-61
2022/08/21 11:08:59;;;;;;;4.53;1.60;;;;;;;17.97;73.40;99948.94;30854635;28;96755;-61
2022/08/21 11:24:15;;;;;;;4.03;2.20;;;;;;;17.75;72.95;99968.19;30852577;28;96991;-61
2022/08/21 11:39:21;;;;;;;3.70;1.90;;;;;;;17.58;73.18;99976.84;30853087;28;96669;-62
2022/08/21 11:54:29;;;;;;;4.37;2.10;;;;;;;17.41;72.47;99965.84;30850809;28;98420;-59
2022/08/21 12:09:36;;;;;;;4.77;2.50;;;;;;;17.83;72.06;99978.69;30849677;28;96772;-61
2022/08/21 12:24:47;;;;;;;7.17;2.53;;;;;;;17.92;71.36;99982.78;30849059;28;96666;-61
2022/08/21 12:39:52;;;;;;;4.13;2.20;;;;;;;17.87;71.57;99973.69;30866426;28;96849;-61
2022/08/21 12:54:52;;;;;;;4.77;2.63;;;;;;;18.14;71.42;99957.22;30866686;28;96855;-61
2022/08/21 13:09:57;;;;;;;4.28;2.72;;;;;;;18.19;71.25;99957.38;30865181;28;96780;-61
2022/08/21 13:24:58;;;;;;;6.33;3.47;;;;;;;18.13;71.26;99956.41;30864727;28;97278;-61
2022/08/21 13:39:58;;;;;;;6.68;2.28;;;;;;;18.34;71.07;99968.59;30861064;28;96719;-61
2022/08/21 13:55:09;;;;;;;4.70;2.80;;;;;;;18.54;70.69;99962.94;30860602;28;96902;-60
2022/08/21 14:10:20;;;;;;;6.17;2.50;;;;;;;18.61;70.41;99979.03;30859451;28;96683;-59
2022/08/21 14:25:24;;;;;;;6.70;2.93;;;;;;;18.73;70.20;99976.38;30857098;28;97028;-59
2022/08/21 14:40:25;;;;;;;5.20;2.60;;;;;;;18.81;69.75;99970.66;30856348;28;97388;-60
2022/08/21 14:55:26;;;;;;;7.03;2.63;;;;;;;18.60;69.01;99967.44;30855363;28;97487;-60
2022/08/21 15:10:27;;;;;;;4.00;2.70;;;;;;;18.49;68.92;99973.59;30854027;28;96716;-59
2022/08/21 15:25:28;;;;;;;4.97;2.90;;;;;;;18.41;69.48;99971.19;30853300;28;97395;-60
2022/08/21 15:40:29;;;;;;;5.30;3.25;;;;;;;18.40;69.46;99983.06;30851431;28;97514;-59
2022/08/21 15:55:30;;;;;;;7.28;3.50;;;;;;;18.44;70.05;99978.84;30850830;28;97572;-59
2022/08/21 16:10:30;;;;;;;6.75;3.50;;;;;;;18.39;70.50;99976.00;30862441;28;96705;-59
2022/08/21 16:25:36;;;;;;;6.00;3.17;;;;;;;18.36;71.20;99976.47;30869917;28;97026;-59
2022/08/21 16:40:36;;;;;;;5.07;3.40;;;;;;;18.27;71.87;99979.47;30868451;28;96959;-59
2022/08/21 16:55:37;;;;;;;5.30;2.75;;;;;;;18.15;72.65;100002.84;30866173;28;97356;-61
2022/08/21 17:10:42;;;;;;;4.07;2.67;;;;;;;18.01;73.24;100006.72;30865928;28;96782;-61
2022/08/21 17:25:45;;;;;;;3.90;2.17;;;;;;;17.81;73.97;100007.75;30863399;28;96633;-61
2022/08/21 17:40:46;;;;;;;5.63;2.27;;;;;;;17.63;74.63;100016.59;30861496;28;96709;-61
2022/08/21 17:55:48;;;;;;;3.77;2.00;;;;;;;17.50;74.94;100019.41;30861491;28;96828;-59
2022/08/21 18:10:49;;;;;;;4.47;2.00;;;;;;;17.33;74.89;100019.97;30858892;28;97065;-61
2022/08/21 18:25:55;;;;;;;4.30;1.87;;;;;;;17.18;75.08;100022.97;30858847;28;97318;-61
2022/08/21 18:40:58;;;;;;;4.03;1.80;;;;;;;17.07;75.17;100019.09;30856314;28;96676;-61
2022/08/21 18:55:58;;;;;;;5.90;2.23;;;;;;;17.04;75.52;100034.84;30855635;28;96770;-61
2022/08/21 19:11:01;;;;;;;6.63;3.13;;;;;;;16.95;75.45;100036.16;30853987;28;96600;-60
2022/08/21 19:26:05;;;;;;;5.70;2.33;;;;;;;16.84;75.80;100045.69;30852817;28;96728;-60
2022/08/21 19:41:10;;;;;;;4.03;2.10;;;;;;;16.72;75.86;100035.63;30858780;28;96795;-61
2022/08/21 19:56:16;;;;;;;4.30;2.53;;;;;;;16.58;76.51;100026.78;30870522;28;97580;-59
2022/08/21 20:11:25;;;;;;;4.60;2.63;;;;;;;16.52;76.84;100033.00;30870289;28;97568;-59
2022/08/21 20:26:25;;;;;;;6.57;2.83;;;;;;;16.59;77.41;100043.75;30867830;28;97519;-59
2022/08/21 20:41:26;;;;;;;5.53;2.80;;;;;;;16.65;77.27;100036.69;30867050;28;96737;-59
2022/08/21 20:56:38;;;;;;;5.03;2.90;;;;;;;16.71;77.41;100030.47;30866066;28;97438;-59
2022/08/21 21:11:44;;;;;;;5.47;2.77;;;;;;;16.68;77.54;100017.44;30865843;28;97534;-60
2022/08/21 21:26:53;;;;;;;5.13;2.90;;;;;;;16.61;77.79;100027.38;30864871;28;97511;-59
2022/08/21 21:42:12;;;;;;;4.43;3.03;;;;;;;16.52;77.99;100051.84;30862889;28;96701;-59
2022/08/21 21:57:35;;;;;;;5.20;2.90;;;;;;;16.54;78.14;100036.31;30862344;28;97240;-59
2022/08/21 22:12:52;;;;;;;6.17;2.90;;;;;;;16.50;78.54;100021.66;30859776;28;96781;-59
2022/08/21 22:28:04;;;;;;;7.40;3.17;;;;;;;16.35;78.57;100026.47;30858862;28;98573;-60
2022/08/21 22:43:16;;;;;;;10.50;3.80;;;;;;;16.29;78.96;100005.81;30857232;28;96765;-60
2022/08/21 22:58:16;;;;;;;5.60;3.40;;;;;;;16.18;79.02;99980.41;30856627;28;97097;-60
2022/08/21 23:13:18;;;;;;;5.93;3.67;;;;;;;15.98;79.17;100007.34;30854531;28;96733;-60
2022/08/21 23:28:39;;;;;;;4.00;2.80;;;;;;;15.99;79.58;100025.13;30855045;28;97325;-60
2022/08/21 23:43:48;;;;;;;7.67;3.40;;;;;;;16.02;79.82;100022.84;30853565;28;97170;-60
2022/08/21 23:59:00;;;;;;;6.40;3.30;;;;;;;15.95;79.85;99997.03;30852592;28;96826;-60
